createdAt,value
2018-04-04T00:00:42.261Z,11.00
2018-04-04T00:03:10.986Z,10.90
2018-04-04T00:05:39.251Z,10.90
2018-04-04T00:08:13.362Z,10.80
2018-04-04T00:10:44.184Z,10.80
2018-04-04T00:13:12.857Z,10.80
2018-04-04T00:15:41.655Z,10.70
2018-04-04T00:18:10.920Z,10.60
2018-04-04T00:20:39.610Z,10.70
2018-04-04T00:23:09.768Z,10.70
2018-04-04T00:25:39.248Z,10.70
2018-04-04T00:28:09.621Z,10.70
2018-04-04T00:30:38.720Z,10.70
2018-04-04T00:33:08.673Z,10.60
2018-04-04T00:35:38.461Z,10.60
2018-04-04T00:38:08.755Z,10.60
2018-04-04T00:40:37.467Z,10.50
2018-04-04T00:43:05.907Z,10.40
2018-04-04T00:45:33.939Z,10.30
2018-04-04T00:48:02.654Z,10.10
2018-04-04T00:50:32.160Z,10.10
2018-04-04T00:53:00.540Z,9.90
2018-04-04T00:55:28.808Z,9.70
2018-04-04T00:57:57.286Z,9.60
2018-04-04T01:00:26.316Z,9.30
2018-04-04T01:02:55.595Z,9.20
2018-04-04T01:05:24.049Z,9.10
2018-04-04T01:07:53.547Z,9.00
2018-04-04T01:10:22.222Z,8.90
2018-04-04T01:12:51.547Z,8.80
2018-04-04T01:15:21.051Z,8.80
2018-04-04T01:17:49.487Z,8.70
2018-04-04T01:20:18.117Z,8.70
2018-04-04T01:22:47.995Z,8.80
2018-04-04T01:25:16.850Z,8.70
2018-04-04T01:27:45.490Z,8.60
2018-04-04T01:30:16.178Z,8.60
2018-04-04T01:32:45.776Z,8.40
2018-04-04T01:35:15.347Z,8.30
2018-04-04T01:37:44.327Z,8.20
2018-04-04T01:40:13.438Z,8.10
2018-04-04T01:42:43.222Z,8.00
2018-04-04T01:45:13.908Z,7.80
2018-04-04T01:47:42.470Z,7.70
2018-04-04T01:50:12.067Z,7.60
2018-04-04T01:52:40.569Z,7.50
2018-04-04T01:55:09.468Z,7.50
2018-04-04T01:57:38.406Z,7.40
2018-04-04T02:00:07.829Z,7.40
2018-04-04T02:02:36.434Z,7.30
2018-04-04T02:05:05.143Z,7.20
2018-04-04T02:07:33.888Z,7.20
2018-04-04T02:10:01.769Z,7.20
2018-04-04T02:12:29.707Z,7.20
2018-04-04T02:14:57.594Z,7.20
2018-04-04T02:17:25.539Z,7.20
2018-04-04T02:19:53.442Z,7.10
2018-04-04T02:22:21.398Z,7.10
2018-04-04T02:24:49.287Z,7.10
2018-04-04T02:27:17.231Z,7.20
2018-04-04T02:29:45.112Z,7.20
2018-04-04T02:32:13.112Z,7.20
2018-04-04T02:34:41.010Z,7.20
2018-04-04T02:37:08.958Z,7.20
2018-04-04T02:39:37.639Z,7.20
2018-04-04T02:42:05.623Z,7.20
2018-04-04T02:44:34.318Z,7.20
2018-04-04T02:47:02.198Z,7.20
2018-04-04T02:49:30.154Z,7.20
2018-04-04T02:51:58.803Z,7.30
2018-04-04T02:54:26.749Z,7.30
2018-04-04T02:56:54.694Z,7.40
2018-04-04T02:59:22.627Z,7.40
2018-04-04T03:01:50.507Z,7.30
2018-04-04T03:04:19.222Z,7.60
2018-04-04T03:06:47.132Z,7.50
2018-04-04T03:09:15.098Z,7.60
2018-04-04T03:11:43.004Z,7.80
2018-04-04T03:14:11.725Z,8.10
2018-04-04T03:16:39.627Z,8.10
2018-04-04T03:19:07.584Z,8.30
2018-04-04T03:21:35.503Z,8.50
2018-04-04T03:24:04.294Z,9.00
2018-04-04T03:26:32.259Z,9.00
2018-04-04T03:29:00.223Z,9.40
2018-04-04T03:31:28.139Z,9.40
2018-04-04T03:33:56.157Z,9.40
2018-04-04T03:36:24.075Z,9.50
2018-04-04T03:38:51.989Z,9.60
2018-04-04T03:41:19.964Z,9.60
2018-04-04T03:43:47.868Z,9.60
2018-04-04T03:46:15.831Z,9.70
2018-04-04T03:48:44.495Z,9.70
2018-04-04T03:51:12.468Z,9.60
2018-04-04T03:53:40.434Z,9.60
2018-04-04T03:56:08.413Z,9.60
2018-04-04T03:58:36.336Z,9.50
2018-04-04T04:01:04.316Z,9.50
2018-04-04T04:03:32.248Z,9.50
2018-04-04T04:06:00.211Z,9.40
2018-04-04T04:08:28.132Z,9.40
2018-04-04T04:10:56.091Z,9.30
2018-04-04T04:13:27.605Z,9.30
2018-04-04T04:15:55.808Z,9.30
2018-04-04T04:18:24.152Z,9.20
2018-04-04T04:20:54.449Z,9.20
2018-04-04T04:23:25.980Z,9.10
2018-04-04T04:25:57.053Z,9.10
2018-04-04T04:28:27.140Z,9.00
2018-04-04T04:30:58.716Z,9.00
2018-04-04T04:33:34.605Z,8.90
2018-04-04T04:36:02.711Z,8.90
2018-04-04T04:38:30.636Z,8.80
2018-04-04T04:41:02.720Z,8.80
2018-04-04T04:43:34.679Z,8.80
2018-04-04T04:46:06.466Z,8.80
2018-04-04T04:48:38.301Z,8.80
2018-04-04T04:51:10.875Z,8.80
2018-04-04T04:53:42.859Z,9.00
2018-04-04T04:56:14.544Z,9.00
2018-04-04T04:58:42.678Z,9.10
2018-04-04T05:01:10.666Z,9.30
2018-04-04T05:03:38.572Z,9.40
2018-04-04T05:06:06.510Z,9.60
2018-04-04T05:08:34.413Z,9.70
2018-04-04T05:11:02.311Z,9.70
2018-04-04T05:13:31.020Z,9.90
2018-04-04T05:15:58.910Z,9.90
2018-04-04T05:18:26.850Z,10.00
2018-04-04T05:20:54.755Z,10.10
2018-04-04T05:23:22.712Z,10.10
2018-04-04T05:25:50.604Z,10.10
2018-04-04T05:28:18.567Z,10.10
2018-04-04T05:30:46.533Z,10.10
2018-04-04T05:33:14.499Z,10.10
2018-04-04T05:35:42.395Z,10.10
2018-04-04T05:38:10.351Z,10.20
2018-04-04T05:40:38.254Z,10.20
2018-04-04T05:43:07.011Z,10.30
2018-04-04T05:45:34.939Z,10.20
2018-04-04T05:48:02.901Z,10.30
2018-04-04T05:50:31.583Z,10.50
2018-04-04T05:53:00.308Z,10.60
2018-04-04T05:55:28.207Z,10.50
2018-04-04T05:58:03.861Z,10.60
2018-04-04T06:00:31.830Z,10.70
2018-04-04T06:02:59.815Z,10.70
2018-04-04T06:05:27.730Z,10.60
2018-04-04T06:07:55.709Z,10.60
2018-04-04T06:10:23.613Z,10.60
2018-04-04T06:12:51.604Z,10.60
2018-04-04T06:15:20.319Z,10.70
2018-04-04T06:17:48.323Z,10.70
2018-04-04T06:20:16.254Z,10.70
2018-04-04T06:22:44.184Z,10.70
2018-04-04T06:25:12.199Z,10.70
2018-04-04T06:27:40.161Z,10.70
2018-04-04T06:30:08.143Z,10.70
2018-04-04T06:32:36.059Z,10.80
2018-04-04T06:35:04.045Z,10.80
2018-04-04T06:37:31.956Z,10.70
2018-04-04T06:39:59.963Z,10.70
2018-04-04T06:42:27.873Z,10.60
2018-04-04T06:44:56.611Z,10.50
2018-04-04T06:47:24.521Z,10.50
2018-04-04T06:49:53.278Z,10.30
2018-04-04T06:52:21.211Z,10.30
2018-04-04T06:54:49.196Z,10.20
2018-04-04T06:57:17.110Z,10.10
2018-04-04T06:59:45.086Z,10.00
2018-04-04T07:02:13.002Z,9.90
2018-04-04T07:04:40.962Z,9.90
2018-04-04T07:07:08.874Z,9.80
2018-04-04T07:09:36.822Z,9.70
2018-04-04T07:12:04.731Z,9.70
2018-04-04T07:14:32.691Z,9.60
2018-04-04T07:17:00.595Z,9.60
2018-04-04T07:19:28.571Z,9.60
2018-04-04T07:21:56.511Z,9.70
2018-04-04T07:24:24.499Z,9.80
2018-04-04T07:26:52.410Z,9.80
2018-04-04T07:29:20.400Z,9.80
2018-04-04T07:31:48.304Z,9.80
2018-04-04T07:34:16.979Z,9.80
2018-04-04T07:36:44.984Z,9.80
2018-04-04T07:39:12.885Z,9.80
2018-04-04T07:41:40.858Z,9.80
2018-04-04T07:44:08.763Z,9.70
2018-04-04T07:46:37.485Z,9.80
2018-04-04T07:49:05.382Z,9.80
2018-04-04T07:51:33.339Z,9.80
2018-04-04T07:54:01.344Z,9.80
2018-04-04T07:56:29.305Z,9.80
2018-04-04T07:58:57.207Z,9.70
2018-04-04T08:01:25.931Z,9.70
2018-04-04T08:03:53.852Z,9.70
2018-04-04T08:06:21.811Z,9.70
2018-04-04T08:08:49.775Z,9.80
2018-04-04T08:11:17.752Z,9.90
2018-04-04T08:13:45.657Z,10.10
2018-04-04T08:16:13.668Z,10.20
2018-04-04T08:18:41.589Z,10.20
2018-04-04T08:21:09.546Z,10.30
2018-04-04T08:23:37.464Z,10.40
2018-04-04T08:26:05.432Z,10.40
2018-04-04T08:28:33.338Z,10.40
2018-04-04T08:31:01.314Z,10.40
2018-04-04T08:33:29.223Z,10.40
2018-04-04T08:35:57.131Z,10.50
2018-04-04T08:38:25.091Z,10.50
2018-04-04T08:40:52.998Z,10.50
2018-04-04T08:43:21.723Z,10.40
2018-04-04T08:45:49.629Z,10.30
2018-04-04T08:48:17.598Z,10.30
2018-04-04T08:50:45.506Z,10.50
2018-04-04T08:53:13.528Z,10.60
2018-04-04T08:55:41.465Z,10.80
2018-04-04T08:58:09.420Z,10.80
2018-04-04T09:00:38.090Z,11.40
2018-04-04T09:03:06.862Z,11.80
2018-04-04T09:05:34.832Z,11.80
2018-04-04T09:08:02.804Z,12.30
2018-04-04T09:10:30.727Z,12.60
2018-04-04T09:12:58.696Z,12.60
2018-04-04T09:15:33.322Z,12.90
2018-04-04T09:18:01.503Z,12.60
2018-04-04T09:20:32.214Z,13.00
2018-04-04T09:23:00.216Z,13.60
2018-04-04T09:25:28.138Z,14.40
2018-04-04T09:27:56.091Z,15.10
2018-04-04T09:30:24.017Z,14.40
2018-04-04T09:32:51.965Z,14.40
2018-04-04T09:35:20.756Z,15.40
2018-04-04T09:37:48.762Z,15.40
2018-04-04T09:40:16.667Z,15.50
2018-04-04T09:42:44.626Z,15.30
2018-04-04T09:45:12.540Z,15.00
2018-04-04T09:47:41.220Z,14.00
2018-04-04T09:50:09.962Z,14.30
2018-04-04T09:52:37.895Z,14.30
2018-04-04T09:55:05.831Z,14.70
2018-04-04T09:57:33.979Z,14.70
2018-04-04T10:00:01.979Z,14.80
2018-04-04T10:02:29.884Z,14.50
2018-04-04T10:04:57.847Z,14.50
2018-04-04T10:07:27.214Z,14.80
2018-04-04T10:09:56.189Z,15.10
2018-04-04T10:12:24.358Z,15.00
2018-04-04T10:14:52.352Z,14.30
2018-04-04T10:17:21.156Z,14.10
2018-04-04T10:19:49.204Z,13.90
2018-04-04T10:22:17.115Z,13.70
2018-04-04T10:24:45.076Z,13.80
2018-04-04T10:27:13.758Z,13.90
2018-04-04T10:29:41.748Z,13.80
2018-04-04T10:32:09.659Z,13.80
2018-04-04T10:34:38.709Z,13.80
2018-04-04T10:37:06.914Z,13.90
2018-04-04T10:39:34.884Z,14.40
2018-04-04T10:42:02.958Z,14.40
2018-04-04T10:44:30.923Z,14.50
2018-04-04T10:46:58.843Z,14.30
2018-04-04T10:49:26.806Z,14.10
2018-04-04T10:51:54.732Z,13.90
2018-04-04T10:54:22.645Z,14.10
2018-04-04T10:56:50.668Z,14.20
2018-04-04T10:59:18.567Z,14.10
2018-04-04T11:01:46.530Z,14.00
2018-04-04T11:04:14.464Z,13.90
2018-04-04T11:06:43.133Z,13.70
2018-04-04T11:09:11.189Z,13.70
2018-04-04T11:11:39.159Z,13.60
2018-04-04T11:14:07.067Z,13.60
2018-04-04T11:16:35.086Z,13.60
2018-04-04T11:19:03.021Z,13.50
2018-04-04T11:21:30.979Z,13.40
2018-04-04T11:23:59.009Z,13.30
2018-04-04T11:26:26.994Z,13.20
2018-04-04T11:28:55.693Z,13.10
2018-04-04T11:31:23.693Z,13.10
2018-04-04T11:33:52.342Z,13.00
2018-04-04T11:36:21.060Z,12.90
2018-04-04T11:38:49.675Z,12.80
2018-04-04T11:41:17.614Z,12.80
2018-04-04T11:43:45.602Z,12.60
2018-04-04T11:46:13.642Z,12.40
2018-04-04T11:48:41.556Z,12.30
2018-04-04T11:51:09.582Z,12.10
2018-04-04T11:53:37.512Z,12.00
2018-04-04T11:56:05.496Z,11.80
2018-04-04T11:58:33.403Z,11.70
2018-04-04T12:01:01.310Z,11.70
2018-04-04T12:03:29.262Z,11.80
2018-04-04T12:05:57.171Z,11.70
2018-04-04T12:08:25.136Z,11.60
2018-04-04T12:10:53.044Z,11.70
2018-04-04T12:13:20.997Z,11.70
2018-04-04T12:15:49.671Z,11.70
2018-04-04T12:18:18.433Z,11.70
2018-04-04T12:20:46.412Z,11.70
2018-04-04T12:23:14.377Z,11.70
2018-04-04T12:25:42.291Z,11.60
2018-04-04T12:28:10.496Z,11.50
2018-04-04T12:30:39.682Z,11.40
2018-04-04T12:33:07.646Z,11.30
2018-04-04T12:35:35.668Z,11.20
2018-04-04T12:38:05.272Z,11.10
2018-04-04T12:40:33.217Z,10.90
2018-04-04T12:43:01.172Z,10.80
2018-04-04T12:45:29.087Z,10.80
2018-04-04T12:47:57.047Z,10.70
2018-04-04T12:50:24.956Z,10.70
2018-04-04T12:52:53.683Z,10.80
2018-04-04T12:55:21.648Z,10.80
2018-04-04T12:57:49.678Z,10.90
2018-04-04T13:00:19.326Z,10.80
2018-04-04T13:02:47.289Z,10.80
2018-04-04T13:05:15.212Z,10.80
2018-04-04T13:07:43.126Z,10.90
2018-04-04T13:10:11.092Z,10.90
2018-04-04T13:12:45.450Z,10.90
2018-04-04T13:15:13.504Z,11.00
2018-04-04T13:17:41.412Z,10.80
2018-04-04T13:20:10.427Z,10.70
2018-04-04T13:22:39.189Z,10.80
2018-04-04T13:25:07.163Z,10.70
2018-04-04T13:27:35.075Z,10.80
2018-04-04T13:30:03.065Z,11.00
2018-04-04T13:32:31.008Z,11.10
2018-04-04T13:34:58.972Z,11.20
2018-04-04T13:37:26.901Z,11.20
2018-04-04T13:39:54.882Z,11.10
2018-04-04T13:42:22.809Z,11.10
2018-04-04T13:44:50.767Z,11.00
2018-04-04T13:47:18.677Z,11.20
2018-04-04T13:49:46.696Z,11.30
2018-04-04T13:52:14.617Z,11.30
2018-04-04T13:54:42.587Z,11.50
2018-04-04T13:57:10.504Z,11.50
2018-04-04T13:59:39.264Z,11.40
2018-04-04T14:02:07.171Z,11.30
2018-04-04T14:04:35.149Z,11.30
2018-04-04T14:07:03.067Z,11.30
2018-04-04T14:09:31.101Z,11.30
2018-04-04T14:11:59.006Z,11.30
2018-04-04T14:14:26.980Z,11.30
2018-04-04T14:16:54.899Z,11.50
2018-04-04T14:19:22.806Z,11.40
2018-04-04T14:21:50.779Z,11.30
2018-04-04T14:24:18.742Z,11.40
2018-04-04T14:26:46.721Z,11.50
2018-04-04T14:29:14.664Z,11.50
2018-04-04T14:31:42.639Z,11.40
2018-04-04T14:34:10.548Z,11.50
2018-04-04T14:36:38.498Z,11.50
2018-04-04T14:39:06.424Z,11.50
2018-04-04T14:41:34.399Z,11.60
2018-04-04T14:44:02.299Z,11.80
2018-04-04T14:46:30.296Z,11.90
2018-04-04T14:48:58.239Z,12.00
2018-04-04T14:51:26.203Z,12.10
2018-04-04T14:53:54.148Z,12.10
2018-04-04T14:56:22.120Z,12.10
2018-04-04T14:58:50.020Z,12.20
2018-04-04T15:01:17.979Z,11.90
2018-04-04T15:03:45.889Z,11.90
2018-04-04T15:06:13.855Z,12.00
2018-04-04T15:08:41.768Z,12.10
2018-04-04T15:11:09.731Z,12.10
2018-04-04T15:13:37.634Z,12.20
2018-04-04T15:16:05.654Z,11.90
2018-04-04T15:18:34.343Z,12.00
2018-04-04T15:21:03.064Z,12.10
2018-04-04T15:23:31.032Z,12.00
2018-04-04T15:25:58.957Z,12.10
2018-04-04T15:28:27.699Z,12.10
2018-04-04T15:30:55.611Z,12.00
2018-04-04T15:33:23.587Z,12.10
2018-04-04T15:35:52.276Z,11.90
2018-04-04T15:38:21.015Z,11.90
2018-04-04T15:40:48.957Z,11.90
2018-04-04T15:43:16.958Z,12.00
2018-04-04T15:45:44.877Z,12.00
2018-04-04T15:48:13.604Z,11.80
2018-04-04T15:50:41.501Z,11.70
2018-04-04T15:53:09.508Z,11.80
2018-04-04T15:55:37.405Z,11.70
2018-04-04T15:58:05.384Z,11.70
2018-04-04T16:00:33.287Z,11.70
2018-04-04T16:03:07.124Z,11.80
2018-04-04T16:05:35.778Z,11.60
2018-04-04T16:08:03.777Z,11.60
2018-04-04T16:10:31.689Z,11.50
2018-04-04T16:12:59.643Z,11.50
2018-04-04T16:15:27.531Z,11.50
2018-04-04T16:17:55.482Z,11.40
2018-04-04T16:20:23.375Z,11.40
2018-04-04T16:22:51.316Z,11.40
2018-04-04T16:25:19.217Z,11.40
2018-04-04T16:27:47.649Z,11.40
2018-04-04T16:30:17.577Z,11.40
2018-04-04T16:32:45.667Z,11.40
2018-04-04T16:35:13.583Z,11.50
2018-04-04T16:37:41.511Z,11.50
2018-04-04T16:40:09.484Z,11.50
2018-04-04T16:42:37.421Z,11.50
2018-04-04T16:45:05.462Z,11.50
2018-04-04T16:47:36.135Z,11.40
2018-04-04T16:50:04.649Z,11.50
2018-04-04T16:52:33.189Z,11.50
2018-04-04T16:55:02.155Z,11.60
2018-04-04T16:57:30.154Z,11.60
2018-04-04T16:59:58.212Z,11.60
2018-04-04T17:02:27.558Z,11.60
2018-04-04T17:04:55.525Z,11.60
2018-04-04T17:07:23.440Z,11.50
2018-04-04T17:09:51.399Z,11.50
2018-04-04T17:12:19.406Z,11.60
2018-04-04T17:14:50.355Z,11.50
2018-04-04T17:17:19.074Z,11.50
2018-04-04T17:19:47.115Z,11.50
2018-04-04T17:22:15.840Z,11.40
2018-04-04T17:24:46.060Z,11.40
2018-04-04T17:27:14.113Z,11.40
2018-04-04T17:29:46.865Z,11.30
2018-04-04T17:32:18.889Z,11.30
2018-04-04T17:34:50.774Z,11.30
2018-04-04T17:37:21.619Z,11.30
2018-04-04T17:39:54.225Z,11.10
2018-04-04T17:42:25.138Z,11.10
2018-04-04T17:44:56.613Z,11.00
2018-04-04T17:47:28.279Z,10.90
2018-04-04T17:49:59.486Z,10.80
2018-04-04T17:52:30.222Z,10.70
2018-04-04T17:55:00.843Z,10.60
2018-04-04T17:57:32.363Z,10.50
2018-04-04T18:00:03.388Z,10.40
2018-04-04T18:02:34.389Z,10.30
2018-04-04T18:05:05.173Z,10.20
2018-04-04T18:07:36.764Z,10.10
2018-04-04T18:10:08.159Z,10.00
2018-04-04T18:12:38.649Z,9.90
2018-04-04T18:15:09.772Z,9.80
2018-04-04T18:17:40.985Z,9.80
2018-04-04T18:20:12.082Z,9.80
2018-04-04T18:22:41.742Z,9.80
2018-04-04T18:25:09.836Z,9.70
2018-04-04T18:27:37.783Z,9.70
2018-04-04T18:30:06.454Z,9.60
2018-04-04T18:32:36.350Z,9.60
2018-04-04T18:35:07.987Z,9.60
2018-04-04T18:37:43.144Z,9.40
2018-04-04T18:40:14.135Z,9.30
2018-04-04T18:42:44.124Z,9.10
2018-04-04T18:45:13.912Z,8.80
2018-04-04T18:47:44.927Z,8.90
2018-04-04T18:50:17.095Z,8.80
2018-04-04T18:52:49.044Z,8.80
2018-04-04T18:55:21.161Z,8.70
2018-04-04T18:57:52.507Z,8.70
2018-04-04T19:00:23.671Z,8.80
2018-04-04T19:02:55.213Z,9.00
2018-04-04T19:05:26.745Z,9.10
2018-04-04T19:07:56.932Z,9.10
2018-04-04T19:10:28.623Z,9.10
2018-04-04T19:12:59.909Z,9.10
2018-04-04T19:15:32.026Z,9.10
2018-04-04T19:18:02.991Z,9.30
2018-04-04T19:20:34.816Z,9.40
2018-04-04T19:23:02.931Z,9.40
2018-04-04T19:25:30.893Z,9.60
2018-04-04T19:28:06.491Z,9.60
2018-04-04T19:30:36.681Z,9.60
2018-04-04T19:33:06.360Z,9.60
2018-04-04T19:35:35.001Z,9.50
2018-04-04T19:38:03.370Z,9.60
2018-04-04T19:40:31.981Z,9.50
2018-04-04T19:43:00.556Z,9.40
2018-04-04T19:45:29.509Z,9.20
2018-04-04T19:47:58.440Z,9.20
2018-04-04T19:50:28.483Z,9.20
2018-04-04T19:52:57.231Z,9.20
2018-04-04T19:55:25.949Z,9.40
2018-04-04T19:57:54.801Z,9.50
2018-04-04T20:00:24.359Z,9.50
2018-04-04T20:02:53.351Z,9.60
2018-04-04T20:05:22.652Z,9.60
2018-04-04T20:07:51.619Z,9.70
2018-04-04T20:10:24.792Z,9.80
2018-04-04T20:12:56.549Z,9.80
2018-04-04T20:15:24.985Z,9.80
2018-04-04T20:17:53.483Z,9.80
2018-04-04T20:20:24.583Z,9.80
2018-04-04T20:22:53.986Z,9.60
2018-04-04T20:25:23.723Z,9.50
2018-04-04T20:27:52.511Z,9.50
2018-04-04T20:30:22.774Z,9.40
2018-04-04T20:32:55.079Z,9.30
2018-04-04T20:35:24.966Z,9.10
2018-04-04T20:37:55.236Z,9.00
2018-04-04T20:40:25.105Z,9.00
2018-04-04T20:42:53.963Z,9.00
2018-04-04T20:45:23.668Z,9.00
2018-04-04T20:47:51.679Z,9.00
2018-04-04T20:50:24.088Z,9.10
2018-04-04T20:52:55.971Z,9.10
2018-04-04T20:55:24.525Z,9.20
2018-04-04T20:57:55.660Z,9.30
2018-04-04T21:00:27.212Z,9.30
2018-04-04T21:02:56.955Z,9.30
2018-04-04T21:05:25.402Z,9.30
2018-04-04T21:07:53.907Z,9.30
2018-04-04T21:10:23.760Z,9.30
2018-04-04T21:12:52.360Z,9.30
2018-04-04T21:15:21.836Z,9.30
2018-04-04T21:17:50.205Z,9.20
2018-04-04T21:20:20.705Z,9.20
2018-04-04T21:22:49.367Z,9.10
2018-04-04T21:25:19.529Z,9.20
2018-04-04T21:27:47.682Z,9.20
2018-04-04T21:30:15.661Z,9.20
2018-04-04T21:32:43.572Z,9.20
2018-04-04T21:35:11.539Z,9.20
2018-04-04T21:37:39.448Z,9.20
2018-04-04T21:40:07.629Z,9.30
2018-04-04T21:42:35.593Z,9.30
2018-04-04T21:45:03.539Z,9.30
2018-04-04T21:47:31.510Z,9.40
2018-04-04T21:49:59.483Z,9.50
2018-04-04T21:52:27.457Z,9.50
2018-04-04T21:54:55.368Z,9.40
2018-04-04T21:57:24.721Z,9.60
2018-04-04T21:59:52.924Z,9.60
2018-04-04T22:02:20.974Z,9.60
2018-04-04T22:04:48.915Z,9.70
2018-04-04T22:07:19.886Z,9.90
2018-04-04T22:09:50.747Z,9.90
2018-04-04T22:12:19.528Z,9.90
2018-04-04T22:14:48.030Z,9.90
2018-04-04T22:17:17.873Z,9.90
2018-04-04T22:19:46.387Z,9.90
2018-04-04T22:22:15.933Z,9.90
2018-04-04T22:24:44.663Z,9.90
2018-04-04T22:27:14.596Z,9.90
2018-04-04T22:29:42.661Z,9.90
2018-04-04T22:32:11.121Z,9.80
2018-04-04T22:34:40.175Z,9.80
2018-04-04T22:37:09.206Z,9.80
2018-04-04T22:39:37.980Z,9.80
2018-04-04T22:42:07.028Z,9.80
2018-04-04T22:44:34.917Z,9.70
2018-04-04T22:47:05.411Z,9.60
2018-04-04T22:49:37.966Z,9.50
2018-04-04T22:52:07.059Z,9.50
2018-04-04T22:54:37.550Z,9.30
2018-04-04T22:57:06.674Z,9.30
2018-04-04T22:59:36.701Z,9.30
2018-04-04T23:02:05.399Z,9.30
2018-04-04T23:04:35.136Z,9.20
2018-04-04T23:07:03.480Z,9.20
2018-04-04T23:09:33.323Z,9.30
2018-04-04T23:12:02.318Z,9.20
2018-04-04T23:14:31.009Z,9.30
2018-04-04T23:16:59.575Z,9.30
2018-04-04T23:19:28.004Z,9.30
2018-04-04T23:21:56.623Z,9.30
2018-04-04T23:24:25.333Z,9.30
2018-04-04T23:26:54.052Z,9.30
2018-04-04T23:29:22.068Z,9.30
2018-04-04T23:31:53.184Z,9.30
2018-04-04T23:34:23.560Z,9.20
2018-04-04T23:36:52.767Z,9.20
2018-04-04T23:39:22.324Z,9.20
2018-04-04T23:41:51.315Z,9.10
2018-04-04T23:44:21.542Z,8.90
2018-04-04T23:46:50.855Z,8.90
2018-04-04T23:49:19.903Z,8.90
2018-04-04T23:51:48.534Z,8.80
2018-04-04T23:54:17.004Z,8.90
2018-04-04T23:56:47.116Z,8.90
2018-04-04T23:59:15.841Z,8.90
